Time;durP1;ratioP1;P1;durP2;ratioP2;P2;SDS_P1;SDS_P2;PMS_P1;PMS_P2;Temp;Humidity;BMP_temperature;BMP_pressure;BME280_temperature;BME280_humidity;BME280_pressure;Samples;Min_cycle;Max_cycle;Signal;HPM_P1;HPM_P2
2021/12/14 00:02:24;;;;;;;58.72;24.52;;;;;;;-0.16;75.80;99871.06;5152280;27;20061;-59
2021/12/14 00:04:50;;;;;;;52.28;24.33;;;;;;;-0.10;75.45;99877.44;5154350;27;20038;-57
2021/12/14 00:07:17;;;;;;;54.25;24.77;;;;;;;-0.06;75.34;99873.53;5153911;27;20504;-58
2021/12/14 00:09:44;;;;;;;55.38;24.98;;;;;;;-0.06;75.23;99876.13;5152761;27;20046;-57
2021/12/14 00:17:23;;;;;;;54.28;23.52;;;;;;;-0.16;75.13;99875.44;5133397;27;20035;-58
2021/12/14 00:19:51;;;;;;;55.00;24.20;;;;;;;-0.22;75.73;99881.28;5147872;27;20042;-56
2021/12/14 00:22:36;;;;;;;58.22;25.40;;;;;;;-0.26;75.29;99884.19;5153798;27;20039;-57
2021/12/14 00:25:04;;;;;;;58.08;24.73;;;;;;;-0.22;75.78;99878.69;5153941;27;20495;-57
2021/12/14 00:27:30;;;;;;;52.95;23.83;;;;;;;-0.21;75.78;99883.72;5152155;27;20034;-58
2021/12/14 00:29:59;;;;;;;64.43;25.67;;;;;;;-0.31;75.95;99880.44;5152438;27;20046;-57
2021/12/14 00:32:28;;;;;;;55.80;24.58;;;;;;;-0.28;75.98;99880.13;5153850;27;20034;-58
2021/12/14 00:34:58;;;;;;;58.78;23.63;;;;;;;-0.34;75.86;99881.53;5151679;27;20050;-57
2021/12/14 00:37:31;;;;;;;52.08;23.80;;;;;;;-0.30;75.89;99872.44;5152265;27;20035;-57
2021/12/14 00:40:00;;;;;;;50.47;23.40;;;;;;;-0.32;75.58;99879.63;5153688;27;20052;-54
2021/12/14 00:42:26;;;;;;;51.90;24.02;;;;;;;-0.34;76.03;99880.75;5134750;27;20050;-58
2021/12/14 00:44:52;;;;;;;50.53;23.13;;;;;;;-0.26;75.13;99883.38;5153685;27;20046;-55
2021/12/14 00:47:18;;;;;;;58.10;24.30;;;;;;;-0.30;76.11;99875.03;5152123;27;20518;-58
2021/12/14 00:49:47;;;;;;;55.53;24.35;;;;;;;-0.31;75.28;99865.59;5151850;27;20046;-57
2021/12/14 00:52:13;;;;;;;48.63;23.58;;;;;;;-0.31;75.31;99863.00;5152094;27;20046;-55
2021/12/14 00:54:39;;;;;;;46.25;21.58;;;;;;;-0.30;75.20;99864.63;5134614;27;20411;-57
2021/12/14 00:57:06;;;;;;;53.97;24.10;;;;;;;-0.26;74.84;99875.56;5153169;27;20045;-58
2021/12/14 00:59:32;;;;;;;49.55;25.35;;;;;;;-0.29;75.42;99868.06;5134266;27;20039;-57
2021/12/14 01:02:07;;;;;;;54.90;24.40;;;;;;;-0.18;75.72;99875.59;5152696;27;20137;-57
2021/12/14 01:05:00;;;;;;;51.95;24.15;;;;;;;-0.03;74.69;99870.59;5151689;27;20468;-55
2021/12/14 01:07:29;;;;;;;50.50;22.88;;;;;;;-0.21;75.13;99869.88;5151661;27;20049;-58
2021/12/14 01:09:59;;;;;;;55.70;25.40;;;;;;;-0.35;75.15;99859.09;5134717;27;20047;-57
2021/12/14 01:12:39;;;;;;;57.95;25.25;;;;;;;-0.25;75.25;99870.19;5153219;27;20043;-55
2021/12/14 01:15:26;;;;;;;56.75;25.10;;;;;;;-0.28;75.25;99864.47;5151850;27;20506;-55
2021/12/14 01:18:17;;;;;;;57.08;24.17;;;;;;;-0.27;75.57;99866.91;5134506;27;20050;-58
2021/12/14 01:20:50;;;;;;;59.67;25.17;;;;;;;-0.34;75.60;99862.50;5152782;27;20544;-57
2021/12/14 01:23:27;;;;;;;55.60;24.33;;;;;;;-0.32;75.57;99863.97;5151350;27;20496;-57
2021/12/14 01:25:56;;;;;;;56.15;22.73;;;;;;;-0.37;75.43;99855.81;5151769;27;20069;-58
2021/12/14 01:28:27;;;;;;;50.53;24.60;;;;;;;-0.34;75.92;99865.91;5151547;27;20037;-56
2021/12/14 01:31:09;;;;;;;51.10;23.25;;;;;;;-0.35;75.04;99873.91;5151741;27;20047;-58
2021/12/14 01:33:39;;;;;;;55.22;23.48;;;;;;;-0.44;76.09;99874.81;5118640;27;20504;-58
2021/12/14 01:36:11;;;;;;;51.65;24.65;;;;;;;-0.46;75.64;99867.16;5150883;27;20053;-56
2021/12/14 01:39:08;;;;;;;52.58;23.15;;;;;;;-0.22;75.66;99870.88;5134298;27;20042;-55
2021/12/14 01:41:30;;;;;;;47.33;21.13;;;;;;;-0.25;74.24;99867.59;5138185;27;20034;-57
2021/12/14 01:43:58;;;;;;;46.47;22.50;;;;;;;-0.30;74.74;99869.03;5151158;27;20039;-58
2021/12/14 01:46:33;;;;;;;49.88;24.10;;;;;;;-0.41;75.16;99874.50;5151347;27;20098;-57
2021/12/14 01:49:15;;;;;;;47.92;22.10;;;;;;;-0.39;74.98;99868.16;5151415;27;20472;-57
2021/12/14 01:51:48;;;;;;;45.85;21.58;;;;;;;-0.41;75.06;99854.50;5151224;27;20042;-57
2021/12/14 01:54:31;;;;;;;48.13;22.95;;;;;;;-0.49;75.25;99864.88;5151225;27;20039;-58
2021/12/14 01:56:58;;;;;;;45.15;20.83;;;;;;;-0.45;75.26;99868.78;5152591;27;20067;-57
2021/12/14 01:59:33;;;;;;;43.28;20.13;;;;;;;-0.45;75.13;99863.56;5151409;27;20062;-57
2021/12/14 02:02:28;;;;;;;48.72;22.42;;;;;;;-0.49;75.21;99865.69;5151676;27;20034;-56
2021/12/14 02:04:49;;;;;;;45.67;20.63;;;;;;;-0.47;74.98;99860.31;5151963;27;20050;-54
2021/12/14 02:07:17;;;;;;;45.42;20.70;;;;;;;-0.57;75.02;99859.59;5100321;27;20413;-56
2021/12/14 02:09:51;;;;;;;41.47;20.08;;;;;;;-0.53;75.25;99863.53;5130466;28;20039;-57
2021/12/14 02:12:20;;;;;;;42.47;21.08;;;;;;;-0.53;74.75;99853.94;5130823;28;20038;-56
2021/12/14 02:14:48;;;;;;;43.63;20.27;;;;;;;-0.48;74.41;99856.88;5130186;27;20043;-57
2021/12/14 02:17:17;;;;;;;45.13;20.63;;;;;;;-0.56;74.99;99853.41;5130517;28;20288;-57
2021/12/14 02:19:44;;;;;;;45.53;20.38;;;;;;;-0.55;74.80;99857.66;5147466;27;20119;-57
2021/12/14 02:22:10;;;;;;;43.75;19.70;;;;;;;-0.60;74.84;99857.31;5150585;27;20539;-57
2021/12/14 02:24:39;;;;;;;46.22;19.13;;;;;;;-0.69;74.63;99851.22;5130199;27;20122;-56
2021/12/14 02:27:06;;;;;;;38.53;18.25;;;;;;;-0.70;74.75;99852.22;5135308;27;20043;-57
2021/12/14 02:29:34;;;;;;;41.65;19.88;;;;;;;-0.86;75.04;99849.47;5142391;27;20039;-58
2021/12/14 02:32:13;;;;;;;38.00;18.00;;;;;;;-0.88;74.94;99854.84;5154438;27;20129;-58
2021/12/14 02:34:47;;;;;;;43.13;18.42;;;;;;;-1.01;75.29;99844.00;5155752;27;20058;-57
2021/12/14 02:37:15;;;;;;;49.53;19.83;;;;;;;-0.94;75.62;99842.47;5154949;27;20067;-58
2021/12/14 02:42:21;;;;;;;52.50;20.48;;;;;;;-1.09;75.87;99846.53;5154808;27;20038;-58
2021/12/14 02:44:49;;;;;;;40.38;18.58;;;;;;;-1.10;76.00;99853.53;5154701;27;20117;-57
2021/12/14 02:47:16;;;;;;;45.88;19.30;;;;;;;-1.07;76.06;99853.25;5155482;27;20042;-57
2021/12/14 02:49:43;;;;;;;40.50;19.00;;;;;;;-1.09;76.02;99843.94;5136741;27;20093;-56
2021/12/14 02:52:14;;;;;;;44.83;19.85;;;;;;;-1.07;76.05;99847.22;5154639;27;20038;-58
2021/12/14 02:54:47;;;;;;;33.83;16.77;;;;;;;-1.07;75.85;99844.63;5155567;27;20038;-58
2021/12/14 02:57:19;;;;;;;44.25;19.63;;;;;;;-1.15;76.11;99843.59;5154304;27;20039;-57
2021/12/14 02:59:46;;;;;;;39.90;18.45;;;;;;;-1.08;75.69;99846.41;5155506;27;20053;-57
2021/12/14 03:02:20;;;;;;;41.17;18.60;;;;;;;-1.03;75.53;99853.75;5154238;27;20034;-57
2021/12/14 03:04:51;;;;;;;36.78;17.33;;;;;;;-1.02;75.46;99856.22;5155294;27;20042;-55
2021/12/14 03:07:21;;;;;;;36.20;17.60;;;;;;;-1.04;75.46;99858.13;5133662;27;20049;-58
2021/12/14 03:12:36;;;;;;;59.20;23.95;;;;;;;-1.03;75.37;99854.59;5154290;27;20038;-57
2021/12/14 03:15:08;;;;;;;43.05;18.70;;;;;;;-1.01;75.26;99852.63;5154837;27;20050;-57
2021/12/14 03:17:35;;;;;;;40.60;18.33;;;;;;;-1.00;75.37;99854.28;5153822;27;20049;-57
2021/12/14 03:20:07;;;;;;;38.78;18.40;;;;;;;-1.00;75.46;99856.03;5153531;27;20401;-56
2021/12/14 03:23:02;;;;;;;41.85;17.92;;;;;;;-0.95;75.26;99857.22;5153813;27;20081;-56
2021/12/14 03:25:34;;;;;;;37.05;16.58;;;;;;;-0.93;75.15;99857.91;5155194;27;20075;-57
2021/12/14 03:28:00;;;;;;;37.08;18.45;;;;;;;-0.83;75.48;99843.97;5153663;27;20054;-58
2021/12/14 03:30:26;;;;;;;40.38;19.23;;;;;;;-0.80;75.04;99852.28;5153424;27;20070;-58
2021/12/14 03:32:56;;;;;;;37.95;17.67;;;;;;;-0.80;75.12;99849.69;5132204;27;20047;-58
2021/12/14 03:35:44;;;;;;;40.38;18.52;;;;;;;-0.75;74.95;99849.25;5133935;27;20500;-57
2021/12/14 03:38:20;;;;;;;36.30;18.17;;;;;;;-0.81;74.77;99850.66;5152710;27;20543;-57
2021/12/14 03:40:58;;;;;;;42.85;18.30;;;;;;;-0.87;74.99;99840.88;5136221;27;20051;-57
2021/12/14 03:43:24;;;;;;;41.80;18.63;;;;;;;-0.83;75.08;99842.19;5153247;27;20497;-57
2021/12/14 03:45:52;;;;;;;42.42;18.50;;;;;;;-0.92;74.97;99846.50;5136387;27;20095;-58
2021/12/14 03:48:22;;;;;;;36.05;16.80;;;;;;;-0.94;75.40;99845.06;5154763;27;20035;-58
2021/12/14 03:50:48;;;;;;;39.83;17.83;;;;;;;-0.91;75.44;99852.56;5152863;27;20045;-57
2021/12/14 03:53:18;;;;;;;38.15;16.65;;;;;;;-0.92;75.45;99846.50;5154210;27;20047;-58
2021/12/14 03:55:48;;;;;;;39.83;18.57;;;;;;;-0.88;75.43;99856.63;5152728;27;20120;-58
2021/12/14 03:58:18;;;;;;;;;;;;;;;-0.94;75.52;99850.25;5154964;27;20038;-58
2021/12/14 04:00:49;;;;;;;36.92;16.75;;;;;;;-0.93;75.33;99844.88;5152606;27;20353;-58
2021/12/14 04:03:16;;;;;;;;;;;;;;;-0.88;75.08;99836.63;5154781;27;20114;-57
2021/12/14 04:06:00;;;;;;;39.70;16.95;;;;;;;-0.92;75.44;99838.69;5153706;27;20267;-58
2021/12/14 04:08:27;;;;;;;41.95;17.63;;;;;;;-0.96;75.47;99836.56;5153031;27;20136;-58
2021/12/14 04:10:55;;;;;;;39.70;17.67;;;;;;;-1.02;75.68;99845.81;5152845;27;20130;-58
2021/12/14 04:13:26;;;;;;;39.13;17.13;;;;;;;-1.06;75.78;99843.63;5152747;27;20047;-58
2021/12/14 04:15:54;;;;;;;38.72;17.58;;;;;;;-1.00;75.72;99849.09;5131808;27;20458;-55
2021/12/14 04:18:20;;;;;;;40.10;17.40;;;;;;;-1.08;75.98;99841.22;5131831;27;20045;-58
2021/12/14 04:20:47;;;;;;;42.80;19.85;;;;;;;-0.95;75.68;99846.00;5131706;27;20047;-57
2021/12/14 04:23:18;;;;;;;40.78;18.73;;;;;;;-0.91;75.37;99847.34;5150909;27;20496;-58
2021/12/14 04:25:46;;;;;;;40.17;17.33;;;;;;;-0.72;75.23;99848.94;5153332;27;20049;-57
2021/12/14 04:28:16;;;;;;;35.00;16.02;;;;;;;-0.77;74.45;99849.38;5153231;27;20039;-58
2021/12/14 04:30:43;;;;;;;38.15;16.30;;;;;;;-0.74;74.45;99851.69;5152372;27;20043;-57
2021/12/14 04:33:15;;;;;;;35.00;17.00;;;;;;;-0.81;74.39;99850.66;5152010;27;20042;-57
2021/12/14 04:35:44;;;;;;;37.20;17.60;;;;;;;-0.90;74.97;99851.59;5153681;27;20516;-57
2021/12/14 04:38:21;;;;;;;38.55;16.88;;;;;;;-0.88;74.67;99851.41;5151809;27;20035;-57
2021/12/14 04:52:02;;;;;;;38.35;15.60;;;;;;;-0.94;75.06;99871.09;5135667;27;20114;-57
2021/12/14 04:55:01;;;;;;;30.00;15.52;;;;;;;-0.89;74.89;99874.03;5152167;27;20132;-57
2021/12/14 04:57:36;;;;;;;34.97;16.55;;;;;;;-0.88;74.77;99878.28;5131490;27;20095;-59
2021/12/14 05:00:33;;;;;;;37.92;18.13;;;;;;;-0.77;74.33;99885.00;5131101;27;20397;-57
2021/12/14 05:03:21;;;;;;;36.28;17.08;;;;;;;-0.67;73.89;99879.72;5150508;27;20115;-57
2021/12/14 05:05:50;;;;;;;36.30;16.77;;;;;;;-0.72;74.34;99880.16;5133886;27;20038;-57
2021/12/14 05:11:09;;;;;;;34.55;16.55;;;;;;;-0.81;74.67;99874.09;5152583;27;20045;-58
2021/12/14 05:13:43;;;;;;;37.67;16.83;;;;;;;-0.89;74.68;99876.63;5134187;27;20090;-58
2021/12/14 05:16:23;;;;;;;37.85;16.92;;;;;;;-0.92;74.96;99874.34;5150906;27;20175;-59
2021/12/14 05:18:53;;;;;;;36.63;17.70;;;;;;;-1.02;74.95;99884.84;5117822;27;20515;-60
2021/12/14 05:21:46;;;;;;;39.53;17.00;;;;;;;-0.99;75.36;99883.72;5134294;27;20050;-59
2021/12/14 05:24:17;;;;;;;39.00;17.27;;;;;;;-1.00;74.99;99890.72;5151577;27;20049;-59
2021/12/14 05:26:51;;;;;;;35.70;15.70;;;;;;;-0.93;75.30;99881.31;5117458;27;20073;-58
2021/12/14 05:29:25;;;;;;;38.47;17.85;;;;;;;-0.77;74.59;99885.81;5135186;27;20043;-56
2021/12/14 05:31:51;;;;;;;;;;;;;;;-0.79;74.97;99885.19;5151341;27;20045;-57
2021/12/14 05:34:22;;;;;;;37.70;17.10;;;;;;;-0.75;74.80;99891.69;5129472;27;20336;-57
2021/12/14 05:36:50;;;;;;;48.70;20.50;;;;;;;-0.86;75.00;99891.94;5152681;27;20050;-59
2021/12/14 05:44:40;;;;;;;40.55;17.85;;;;;;;-0.86;74.98;99880.72;5151042;27;20038;-58
2021/12/14 05:47:11;;;;;;;40.17;17.13;;;;;;;-0.73;74.48;99892.38;5151582;27;20054;-59
2021/12/14 05:50:01;;;;;;;39.75;16.15;;;;;;;-0.63;74.38;99894.88;5151230;27;20050;-59
2021/12/14 05:52:29;;;;;;;38.83;18.13;;;;;;;-0.79;74.32;99881.75;5151297;27;20105;-58
2021/12/14 05:55:03;;;;;;;35.83;17.67;;;;;;;-0.82;74.91;99892.47;5147057;27;20467;-57
2021/12/14 05:57:30;;;;;;;40.38;17.92;;;;;;;-0.72;74.56;99888.78;5147782;27;20416;-58
2021/12/14 05:59:56;;;;;;;45.30;19.63;;;;;;;-0.61;74.32;99890.34;5148728;27;20046;-57
2021/12/14 06:02:23;;;;;;;41.15;17.73;;;;;;;-0.66;74.16;99889.97;5152690;27;20526;-56
2021/12/14 06:04:54;;;;;;;38.67;18.75;;;;;;;-0.69;73.98;99885.06;5151710;27;20163;-58
2021/12/14 06:07:23;;;;;;;;;;;;;;;-0.76;74.79;99889.28;5153309;27;20047;-57
2021/12/14 06:09:51;;;;;;;47.30;19.00;;;;;;;-0.80;74.73;99882.72;5151580;27;19926;-57
2021/12/14 06:12:25;;;;;;;44.95;18.48;;;;;;;-0.81;74.86;99887.09;5134436;27;20503;-57
2021/12/14 06:14:56;;;;;;;45.00;18.45;;;;;;;-0.82;74.80;99877.69;5151100;27;20053;-59
2021/12/14 06:17:33;;;;;;;44.63;19.42;;;;;;;-0.69;74.64;99885.06;5151413;27;20045;-55
2021/12/14 06:20:22;;;;;;;40.17;16.50;;;;;;;-0.81;74.31;99878.50;5151539;27;20038;-58
2021/12/14 06:22:52;;;;;;;40.47;17.70;;;;;;;-0.67;74.36;99882.34;5150938;27;20634;-60
2021/12/14 06:25:37;;;;;;;46.33;17.95;;;;;;;-0.69;74.21;99879.88;5143806;27;20050;-54
2021/12/14 06:28:03;;;;;;;49.30;18.77;;;;;;;-0.58;73.53;99887.44;5134093;27;20062;-59
2021/12/14 06:30:33;;;;;;;46.97;19.52;;;;;;;-0.55;73.82;99892.34;5130361;27;20189;-58
2021/12/14 06:33:03;;;;;;;39.90;19.30;;;;;;;-0.68;73.64;99894.50;5143062;27;20573;-58
2021/12/14 06:35:41;;;;;;;;;;;;;;;-0.67;73.89;99896.16;5149295;27;20512;-58
2021/12/14 06:38:28;;;;;;;44.25;17.48;;;;;;;-0.74;74.06;99895.13;5148019;27;19922;-57
2021/12/14 06:41:12;;;;;;;40.42;18.05;;;;;;;-0.73;74.45;99884.56;5113873;27;20062;-56
2021/12/14 06:43:52;;;;;;;33.95;16.50;;;;;;;-0.66;74.18;99878.75;5130295;27;20419;-59
2021/12/14 06:46:20;;;;;;;39.75;18.25;;;;;;;-0.56;73.73;99887.25;5170276;27;20510;-57
2021/12/14 06:48:53;;;;;;;41.05;18.42;;;;;;;-0.58;73.38;99892.66;5152759;27;20046;-58
2021/12/14 06:51:21;;;;;;;40.30;18.15;;;;;;;-0.58;73.84;99890.03;5150189;27;20065;-55
2021/12/14 06:53:59;;;;;;;39.42;18.23;;;;;;;-0.58;74.07;99892.66;5169773;27;20045;-61
2021/12/14 06:57:07;;;;;;;37.00;16.15;;;;;;;-0.52;73.33;99904.25;5136122;27;20180;-58
2021/12/14 06:59:47;;;;;;;45.10;17.83;;;;;;;-0.64;73.79;99892.44;5150361;27;20046;-59
2021/12/14 07:02:22;;;;;;;40.55;17.90;;;;;;;-0.42;73.54;99909.34;5131283;27;20069;-58
2021/12/14 07:05:17;;;;;;;43.92;17.13;;;;;;;-0.36;72.49;99916.53;5152529;27;20125;-58
2021/12/14 07:07:47;;;;;;;37.25;17.23;;;;;;;-0.39;72.79;99917.66;5151161;27;20050;-57
2021/12/14 07:10:15;;;;;;;41.88;19.27;;;;;;;-0.39;72.92;99917.66;5128999;27;20042;-60
2021/12/14 07:12:42;;;;;;;43.97;19.30;;;;;;;-0.31;72.52;99922.09;5129735;27;20047;-59
2021/12/14 07:15:22;;;;;;;47.63;18.75;;;;;;;-0.25;72.59;99931.91;5145517;27;20039;-58
2021/12/14 07:17:54;;;;;;;41.22;19.67;;;;;;;-0.25;72.46;99924.91;5150142;27;20046;-57
2021/12/14 07:20:43;;;;;;;40.42;18.90;;;;;;;-0.10;72.70;99926.94;5152292;27;20461;-57
2021/12/14 07:23:21;;;;;;;32.88;16.08;;;;;;;-0.07;71.48;99930.03;5152634;27;20141;-59
2021/12/14 07:25:55;;;;;;;41.65;19.08;;;;;;;-0.14;71.65;99928.25;5153147;27;20485;-58
2021/12/14 07:28:21;;;;;;;39.58;18.92;;;;;;;-0.15;71.90;99922.19;5150666;27;20550;-58
2021/12/14 07:31:00;;;;;;;42.28;17.42;;;;;;;-0.20;72.00;99927.06;5152121;27;20041;-58
2021/12/14 07:33:34;;;;;;;41.28;18.10;;;;;;;-0.26;72.20;99935.50;5149254;27;20047;-58
2021/12/14 07:36:04;;;;;;;45.60;17.65;;;;;;;-0.22;72.54;99933.41;5149186;27;20103;-56
2021/12/14 07:38:39;;;;;;;39.88;18.75;;;;;;;-0.23;72.19;99937.78;5148408;27;20046;-58
2021/12/14 07:41:30;;;;;;;44.72;18.20;;;;;;;-0.21;72.01;99938.44;5148970;27;20047;-58
2021/12/14 07:43:55;;;;;;;45.95;19.00;;;;;;;-0.18;72.43;99932.09;5148983;27;20114;-58
2021/12/14 07:46:30;;;;;;;52.67;20.30;;;;;;;-0.13;71.94;99935.06;5149828;27;20512;-58
2021/12/14 07:49:00;;;;;;;50.05;22.10;;;;;;;-0.14;71.85;99933.44;5131048;27;20047;-59
2021/12/14 07:51:27;;;;;;;53.65;22.70;;;;;;;-0.08;72.02;99933.63;5149986;27;20205;-58
2021/12/14 07:54:00;;;;;;;50.65;20.83;;;;;;;-0.07;71.57;99931.84;5148389;27;20051;-58
2021/12/14 07:56:33;;;;;;;45.15;19.67;;;;;;;-0.05;71.94;99928.13;5147183;27;20142;-57
2021/12/14 07:58:59;;;;;;;45.30;18.95;;;;;;;-0.10;71.98;99929.53;5130160;27;20129;-57
2021/12/14 08:01:26;;;;;;;44.25;18.77;;;;;;;-0.11;71.64;99927.94;5147658;27;20042;-59
2021/12/14 08:04:04;;;;;;;45.33;20.05;;;;;;;0.01;71.73;99937.09;5150387;27;20042;-58
2021/12/14 08:06:54;;;;;;;41.25;18.23;;;;;;;-0.04;71.24;99941.97;5150508;27;20098;-58
2021/12/14 08:09:48;;;;;;;43.03;18.42;;;;;;;0.04;72.00;99944.59;5150652;27;20441;-58
2021/12/14 08:12:50;;;;;;;47.22;18.55;;;;;;;0.06;70.74;99947.88;5147778;27;20035;-61
2021/12/14 08:15:39;;;;;;;43.55;18.92;;;;;;;0.05;70.82;99946.22;5152057;27;20042;-56
2021/12/14 08:18:35;;;;;;;42.03;18.83;;;;;;;0.11;70.46;99943.00;5147906;27;20042;-60
2021/12/14 08:21:05;;;;;;;46.97;18.52;;;;;;;0.13;70.48;99937.66;5148687;27;20624;-59
2021/12/14 08:23:34;;;;;;;47.83;18.88;;;;;;;0.16;70.32;99943.34;5148927;27;20073;-61
2021/12/14 08:26:05;;;;;;;47.38;18.70;;;;;;;0.26;70.43;99940.63;5149251;27;20047;-55
2021/12/14 08:28:32;;;;;;;49.20;18.83;;;;;;;0.18;71.08;99940.59;5147059;27;20035;-59
2021/12/14 08:31:04;;;;;;;41.45;19.85;;;;;;;0.32;70.79;99936.56;5146687;27;20129;-59
2021/12/14 08:33:31;;;;;;;37.25;18.08;;;;;;;0.22;70.50;99934.91;5150311;27;20103;-58
2021/12/14 08:36:02;;;;;;;53.38;22.17;;;;;;;0.19;70.50;99939.63;5151974;27;20045;-57
2021/12/14 08:38:32;;;;;;;41.85;18.70;;;;;;;0.19;70.58;99942.22;5150473;27;20042;-58
2021/12/14 08:41:08;;;;;;;49.53;21.40;;;;;;;0.21;70.71;99938.50;5150973;27;20157;-57
2021/12/14 08:43:35;;;;;;;41.15;18.08;;;;;;;0.16;69.78;99940.75;5151839;27;20133;-58
2021/12/14 08:46:13;;;;;;;42.65;18.65;;;;;;;-0.02;70.60;99932.19;5151130;27;20492;-57
2021/12/14 08:48:50;;;;;;;42.33;17.77;;;;;;;0.05;70.53;99929.78;5151617;27;20045;-56
2021/12/14 08:51:31;;;;;;;38.13;16.60;;;;;;;-0.09;70.71;99926.81;5149869;27;20034;-57
2021/12/14 08:54:03;;;;;;;43.13;18.38;;;;;;;-0.06;71.11;99938.69;5132974;27;20137;-55
2021/12/14 08:56:32;;;;;;;42.35;18.13;;;;;;;-0.12;70.99;99936.69;5150116;27;20058;-59
2021/12/14 08:58:59;;;;;;;41.83;19.80;;;;;;;-0.14;71.20;99925.63;5151396;27;20479;-58
2021/12/14 09:01:28;;;;;;;43.78;19.88;;;;;;;-0.11;71.00;99933.13;5151351;27;20125;-59
2021/12/14 09:04:08;;;;;;;43.05;18.95;;;;;;;-0.08;70.71;99923.22;5150048;27;20125;-62
2021/12/14 09:06:37;;;;;;;41.13;17.20;;;;;;;-0.01;71.04;99936.44;5151231;27;20049;-58
2021/12/14 09:09:05;;;;;;;45.95;18.98;;;;;;;-0.09;70.94;99929.41;5150471;27;20584;-57
2021/12/14 09:11:35;;;;;;;37.75;17.23;;;;;;;-0.14;70.91;99933.44;5150911;27;20517;-56
2021/12/14 09:14:04;;;;;;;45.17;18.05;;;;;;;-0.07;70.68;99937.88;5150821;27;20045;-61
2021/12/14 09:16:32;;;;;;;39.13;16.98;;;;;;;0.03;70.64;99924.75;5152583;27;20058;-59
2021/12/14 09:19:10;;;;;;;45.15;19.23;;;;;;;0.02;71.14;99930.09;5150483;27;20079;-59
2021/12/14 09:21:39;;;;;;;44.33;19.15;;;;;;;0.06;70.52;99931.41;5152607;27;20053;-55
2021/12/14 09:24:08;;;;;;;47.70;19.88;;;;;;;0.01;70.80;99931.88;5152718;27;20042;-58
2021/12/14 09:26:38;;;;;;;44.75;19.25;;;;;;;-0.07;70.50;99926.63;5152300;27;20038;-58
2021/12/14 09:29:10;;;;;;;42.80;19.55;;;;;;;-0.01;71.08;99929.44;5151612;27;20373;-58
2021/12/14 09:31:40;;;;;;;38.80;18.73;;;;;;;0.13;71.18;99928.03;5152588;27;20054;-58
2021/12/14 09:34:08;;;;;;;40.23;20.27;;;;;;;0.25;70.82;99925.16;5153236;27;20577;-57
2021/12/14 09:36:35;;;;;;;45.97;21.17;;;;;;;0.32;70.45;99929.56;5155797;27;20050;-57
2021/12/14 09:39:29;;;;;;;42.67;19.30;;;;;;;0.56;69.65;99928.84;5156175;27;20035;-57
2021/12/14 09:41:57;;;;;;;42.92;19.95;;;;;;;0.59;68.80;99922.47;5156734;27;20042;-58
2021/12/14 09:44:25;;;;;;;40.45;19.70;;;;;;;0.60;69.20;99927.53;5156339;27;20506;-57
2021/12/14 09:46:55;;;;;;;45.13;19.42;;;;;;;0.56;69.20;99928.84;5156201;27;20119;-58
2021/12/14 09:49:21;;;;;;;41.22;20.00;;;;;;;0.56;69.26;99938.44;5156290;27;20053;-59
2021/12/14 09:51:58;;;;;;;40.70;19.63;;;;;;;0.44;69.53;99927.47;5155560;27;20039;-56
2021/12/14 09:54:25;;;;;;;39.85;19.13;;;;;;;0.35;70.06;99920.59;5155850;27;20050;-58
2021/12/14 09:57:29;;;;;;;41.80;19.08;;;;;;;0.41;70.13;99920.81;5155260;27;20465;-59
2021/12/14 09:59:57;;;;;;;48.22;19.77;;;;;;;0.44;70.07;99924.88;5154473;27;20034;-56
2021/12/14 10:02:36;;;;;;;42.45;17.65;;;;;;;0.34;69.43;99919.78;5132631;27;20039;-55
2021/12/14 10:05:07;;;;;;;41.30;18.58;;;;;;;0.30;69.35;99915.88;5146070;27;20155;-54
2021/12/14 10:07:33;;;;;;;39.30;19.15;;;;;;;0.48;69.50;99915.78;5155112;27;20069;-55
2021/12/14 10:10:01;;;;;;;39.45;20.25;;;;;;;0.60;69.34;99921.50;5156217;27;20861;-57
2021/12/14 10:15:10;;;;;;;40.05;18.75;;;;;;;0.55;69.25;99921.97;5154645;27;20099;-54
2021/12/14 10:17:39;;;;;;;35.50;18.02;;;;;;;0.64;69.03;99918.41;5137157;27;20039;-57
2021/12/14 10:20:06;;;;;;;43.53;18.75;;;;;;;0.61;68.96;99910.09;5154193;27;20043;-53
2021/12/14 10:22:32;;;;;;;43.47;20.55;;;;;;;0.53;68.69;99912.66;5155512;27;20046;-53
2021/12/14 10:25:03;;;;;;;41.33;20.02;;;;;;;0.47;68.75;99916.72;5136842;27;20129;-55
2021/12/14 10:27:31;;;;;;;45.78;20.38;;;;;;;0.29;69.96;99913.41;5155258;27;20050;-56
2021/12/14 10:29:59;;;;;;;42.45;20.55;;;;;;;0.37;70.32;99913.44;5155926;27;20034;-56
2021/12/14 10:32:30;;;;;;;41.15;19.20;;;;;;;0.34;70.81;99916.38;5155216;27;20038;-58
2021/12/14 10:35:07;;;;;;;46.47;20.15;;;;;;;0.42;69.76;99919.03;5135561;27;20034;-54
2021/12/14 10:43:15;;;;;;;38.05;17.60;;;;;;;0.41;70.04;99922.59;5134459;27;20071;-58
2021/12/14 10:45:46;;;;;;;39.55;18.95;;;;;;;0.36;69.65;99927.47;5134242;27;20039;-56
2021/12/14 10:48:12;;;;;;;42.05;19.42;;;;;;;0.25;70.04;99919.94;5152692;27;20487;-56
2021/12/14 10:50:38;;;;;;;42.88;20.45;;;;;;;0.15;70.33;99918.28;5155467;27;20045;-52
2021/12/14 10:53:08;;;;;;;43.25;20.13;;;;;;;0.23;70.67;99933.94;5153629;27;20034;-57
2021/12/14 10:55:38;;;;;;;38.10;17.23;;;;;;;0.21;70.37;99933.28;5154809;27;20065;-56
2021/12/14 10:58:06;;;;;;;38.60;18.35;;;;;;;0.32;69.65;99928.75;5154065;27;20043;-56
2021/12/14 11:00:45;;;;;;;37.70;18.25;;;;;;;0.23;69.97;99926.09;5153104;27;20038;-55
2021/12/14 11:03:18;;;;;;;38.58;17.48;;;;;;;0.19;70.31;99924.78;5137113;27;20096;-56
2021/12/14 11:05:51;;;;;;;44.85;20.30;;;;;;;0.21;70.11;99920.25;5152979;27;20091;-56
2021/12/14 11:11:14;;;;;;;43.70;19.73;;;;;;;0.10;70.59;99906.69;5115193;27;20564;-56
2021/12/14 11:13:43;;;;;;;46.78;21.48;;;;;;;-0.07;71.08;99908.38;5154220;27;20054;-58
2021/12/14 11:16:17;;;;;;;48.67;20.08;;;;;;;-0.24;71.80;99905.72;5153225;27;20206;-56
2021/12/14 11:18:44;;;;;;;46.22;20.80;;;;;;;-0.26;72.37;99899.84;5147607;27;20114;-58
2021/12/14 11:21:14;;;;;;;46.85;20.05;;;;;;;-0.26;72.34;99891.22;5152667;27;20049;-58
2021/12/14 11:23:45;;;;;;;43.05;19.33;;;;;;;-0.03;72.30;99892.28;5149369;27;20042;-58
2021/12/14 11:26:32;;;;;;;44.75;21.27;;;;;;;0.19;71.98;99890.09;5151456;27;20468;-57
2021/12/14 11:29:07;;;;;;;42.95;20.63;;;;;;;0.34;70.34;99892.91;5147693;27;20042;-54
2021/12/14 11:31:37;;;;;;;39.92;20.23;;;;;;;0.21;70.52;99895.97;5139891;27;20078;-58
2021/12/14 11:34:10;;;;;;;39.95;20.00;;;;;;;0.15;71.11;99889.59;5151626;27;20616;-58
2021/12/14 11:36:43;;;;;;;52.67;21.05;;;;;;;0.01;71.65;99891.97;5153240;27;20055;-59
2021/12/14 11:39:22;;;;;;;44.33;19.77;;;;;;;0.00;71.67;99888.56;5148901;27;20031;-58
2021/12/14 11:41:49;;;;;;;44.25;20.00;;;;;;;0.15;70.77;99894.00;5151032;27;20122;-58
2021/12/14 11:44:26;;;;;;;38.53;18.90;;;;;;;0.05;71.20;99895.91;5152469;27;20073;-58
2021/12/14 11:47:11;;;;;;;42.42;19.52;;;;;;;-0.19;71.77;99894.00;5153828;27;20486;-57
2021/12/14 11:49:46;;;;;;;46.20;20.92;;;;;;;-0.28;72.50;99893.94;5152230;27;20076;-59
2021/12/14 11:52:12;;;;;;;40.63;20.00;;;;;;;-0.18;71.58;99906.03;5151519;27;20043;-58
2021/12/14 11:54:47;;;;;;;42.28;19.50;;;;;;;-0.15;71.41;99910.94;5152488;27;20042;-58
2021/12/14 11:57:15;;;;;;;44.95;20.77;;;;;;;-0.28;71.93;99904.38;5150599;27;20078;-58
2021/12/14 11:59:41;;;;;;;40.28;19.55;;;;;;;-0.03;72.32;99902.72;5149194;27;20050;-58
2021/12/14 12:02:08;;;;;;;45.13;20.02;;;;;;;0.22;71.61;99906.22;5152119;27;20039;-61
2021/12/14 12:04:36;;;;;;;43.67;20.25;;;;;;;0.29;70.20;99898.59;5149950;27;20169;-58
2021/12/14 12:09:44;;;;;;;38.83;18.52;;;;;;;0.09;70.82;99899.81;5151660;27;20031;-58
2021/12/14 12:12:21;;;;;;;41.20;18.55;;;;;;;-0.06;71.35;99904.78;5153091;27;20069;-57
2021/12/14 12:14:55;;;;;;;38.80;17.17;;;;;;;-0.17;71.29;99908.50;5152548;27;20540;-58
2021/12/14 12:17:24;;;;;;;39.05;18.05;;;;;;;-0.20;71.63;99915.81;5152125;27;20050;-59
2021/12/14 12:20:10;;;;;;;35.90;16.67;;;;;;;-0.25;71.88;99913.66;5152398;27;20054;-61
2021/12/14 12:22:53;;;;;;;30.05;14.10;;;;;;;-0.22;71.20;99915.97;5149999;27;20106;-56
2021/12/14 12:25:26;;;;;;;34.88;14.32;;;;;;;-0.20;70.98;99908.00;5151590;27;20106;-58
2021/12/14 12:28:14;;;;;;;30.75;14.05;;;;;;;-0.30;72.03;99913.31;5151789;27;20038;-58
2021/12/14 12:30:49;;;;;;;21.85;11.40;;;;;;;-0.33;70.41;99905.81;5140296;27;20043;-58